createdAt,value
2023-03-12T00:02:50.569Z,8.50
2023-03-12T00:06:34.018Z,8.50
2023-03-12T00:19:56.620Z,8.60
2023-03-12T00:23:29.493Z,8.40
2023-03-12T00:37:08.447Z,9.20
2023-03-12T00:40:39.075Z,9.80
2023-03-12T00:44:09.684Z,12.20
2023-03-12T00:51:01.194Z,11.10
2023-03-12T00:54:34.197Z,8.70
2023-03-12T00:58:12.953Z,13.80
2023-03-12T01:11:35.617Z,9.90
2023-03-12T01:15:11.335Z,8.00
2023-03-12T01:39:05.816Z,9.30
2023-03-12T01:42:41.294Z,11.80
2023-03-12T02:02:52.724Z,11.10
2023-03-12T02:06:23.049Z,10.70
2023-03-12T02:09:55.861Z,10.80
2023-03-12T02:13:28.452Z,9.80
2023-03-12T02:17:01.522Z,8.90
2023-03-12T02:20:41.406Z,10.30
2023-03-12T02:44:36.844Z,12.50
2023-03-12T02:48:11.882Z,9.00
2023-03-12T02:51:50.414Z,9.50
2023-03-12T03:01:48.396Z,9.50
2023-03-12T03:05:23.461Z,10.30
2023-03-12T03:22:11.796Z,10.80
2023-03-12T03:25:44.591Z,9.50
2023-03-12T03:29:36.345Z,10.00
2023-03-12T03:33:03.715Z,12.70
2023-03-12T03:46:25.636Z,10.80
2023-03-12T03:49:58.917Z,12.70
2023-03-12T03:53:22.596Z,12.30
2023-03-12T04:10:15.184Z,10.40
2023-03-12T04:13:48.293Z,11.50
2023-03-12T04:17:21.884Z,12.70
2023-03-12T04:38:15.495Z,12.70
2023-03-12T04:41:49.508Z,13.50
2023-03-12T04:55:13.255Z,16.50
2023-03-12T04:58:58.002Z,17.70
2023-03-12T05:02:30.884Z,18.80
2023-03-12T05:06:04.652Z,19.50
2023-03-12T05:09:17.472Z,20.30
2023-03-12T05:12:35.920Z,22.00
2023-03-12T05:16:10.392Z,18.00
2023-03-12T05:40:18.986Z,19.30
2023-03-12T05:43:53.539Z,18.90
2023-03-12T05:47:26.861Z,15.00
2023-03-12T06:08:01.413Z,12.30
2023-03-12T06:11:35.817Z,13.00
2023-03-12T06:15:02.457Z,11.90
2023-03-12T06:18:36.911Z,10.50
2023-03-12T06:35:23.309Z,12.10
2023-03-12T06:38:57.297Z,11.50
2023-03-12T06:42:32.951Z,12.40
2023-03-12T06:45:59.493Z,8.10
2023-03-12T06:59:22.131Z,12.10
2023-03-12T07:02:55.009Z,12.00
2023-03-12T07:06:28.404Z,10.50
2023-03-12T07:10:01.531Z,12.30
2023-03-12T07:13:34.657Z,10.20
2023-03-12T07:17:07.800Z,10.90
2023-03-12T07:20:43.599Z,10.50
2023-03-12T07:24:10.777Z,11.60
2023-03-12T07:43:44.835Z,10.30
2023-03-12T07:47:23.996Z,9.40
2023-03-12T08:11:19.823Z,10.30
2023-03-12T08:14:52.711Z,9.80
2023-03-12T08:42:04.188Z,10.30
2023-03-12T08:45:37.755Z,11.00
2023-03-12T08:49:13.545Z,11.90
2023-03-12T09:13:14.167Z,12.10
2023-03-12T09:16:48.164Z,10.10
2023-03-12T09:30:30.655Z,11.20
2023-03-12T09:34:03.441Z,11.80
2023-03-12T09:37:41.042Z,8.50
2023-03-12T09:47:47.331Z,10.20
2023-03-12T09:51:25.880Z,11.70
2023-03-12T09:55:04.633Z,8.50
2023-03-12T10:08:36.314Z,10.00
2023-03-12T10:12:17.497Z,4.80
2023-03-12T10:16:06.931Z,9.00
2023-03-12T10:33:01.553Z,9.20
2023-03-12T10:36:40.679Z,7.30
2023-03-12T10:40:19.620Z,12.00
2023-03-12T10:47:10.403Z,8.60
2023-03-12T10:50:44.314Z,7.30
2023-03-12T10:54:31.789Z,5.90
2023-03-12T11:04:50.842Z,12.20
2023-03-12T11:08:23.978Z,7.70
2023-03-12T11:12:13.078Z,9.20
2023-03-12T11:25:53.950Z,9.20
2023-03-12T11:29:36.940Z,5.00
2023-03-12T11:50:55.795Z,8.10
2023-03-12T11:55:06.117Z,7.60
2023-03-12T11:58:49.633Z,9.50
2023-03-12T12:02:37.086Z,5.90
2023-03-12T12:05:59.735Z,8.00
2023-03-12T12:09:35.840Z,15.20
2023-03-12T12:13:06.874Z,11.90
2023-03-12T12:16:19.567Z,10.10
2023-03-12T12:20:01.662Z,8.60
2023-03-12T12:23:45.978Z,5.50
2023-03-12T12:27:34.586Z,4.80
2023-03-12T13:41:06.679Z,9.40
2023-03-12T13:44:47.354Z,7.50
2023-03-12T13:48:23.029Z,7.40
2023-03-12T14:00:05.187Z,8.40
2023-03-12T14:03:40.461Z,7.10
2023-03-12T14:07:31.686Z,6.30
2023-03-12T14:24:40.137Z,8.10
2023-03-12T14:28:20.549Z,11.50
2023-03-12T14:31:59.799Z,11.60
2023-03-12T14:35:42.632Z,7.20
2023-03-12T14:39:29.350Z,8.30
2023-03-12T15:06:53.098Z,9.60
2023-03-12T15:10:31.458Z,10.80
2023-03-12T15:14:11.754Z,7.20
2023-03-12T15:24:53.580Z,9.40
2023-03-12T15:28:32.298Z,7.00
2023-03-12T15:31:55.668Z,9.60
2023-03-12T15:52:39.252Z,8.20
2023-03-12T15:56:30.858Z,8.30
2023-03-12T16:00:26.263Z,8.90
2023-03-12T16:04:04.919Z,21.80
2023-03-12T16:07:43.790Z,10.50
2023-03-12T16:11:29.979Z,11.40
2023-03-12T16:15:26.468Z,9.70
2023-03-12T17:00:52.752Z,12.60
2023-03-12T17:04:37.935Z,12.50
2023-03-12T17:08:14.839Z,11.60
2023-03-12T17:12:07.616Z,11.90
2023-03-12T17:29:51.103Z,12.70
2023-03-12T17:33:42.068Z,11.20
2023-03-12T17:47:37.460Z,11.50
2023-03-12T17:51:14.870Z,16.40
2023-03-12T17:54:52.194Z,16.60
2023-03-12T18:08:22.739Z,16.20
2023-03-12T18:12:05.332Z,30.50
2023-03-12T18:15:45.049Z,38.60
2023-03-12T18:19:25.096Z,66.50
2023-03-12T18:26:09.324Z,26.30
2023-03-12T18:29:51.691Z,34.80
2023-03-12T18:33:36.036Z,24.30
2023-03-12T18:50:34.773Z,34.30
2023-03-12T18:54:14.096Z,31.60
2023-03-12T18:57:55.310Z,30.20
2023-03-12T19:11:45.867Z,20.00
2023-03-12T19:15:33.341Z,13.70
2023-03-12T19:19:17.591Z,18.90
2023-03-12T19:47:01.345Z,14.10
2023-03-12T19:50:40.955Z,13.80
2023-03-12T19:57:35.660Z,10.40
2023-03-12T20:01:17.376Z,14.70
2023-03-12T20:04:57.901Z,11.10
2023-03-12T20:08:38.406Z,9.70
2023-03-12T20:12:24.975Z,10.60
2023-03-12T20:29:25.653Z,17.80
2023-03-12T20:33:04.304Z,13.00
2023-03-12T20:53:22.691Z,23.20
2023-03-12T20:56:55.766Z,20.30
2023-03-12T21:00:28.955Z,22.80
2023-03-12T21:13:59.365Z,20.50
2023-03-12T21:17:30.540Z,22.60
2023-03-12T21:34:34.137Z,26.20
2023-03-12T21:38:07.281Z,31.00
2023-03-12T21:41:41.424Z,26.10
2023-03-12T21:45:18.212Z,28.10
2023-03-12T21:59:25.248Z,24.00
2023-03-12T22:02:58.107Z,20.90
2023-03-12T22:06:31.053Z,21.50
2023-03-12T22:10:06.033Z,23.00
2023-03-12T22:13:39.184Z,23.20
2023-03-12T22:20:52.048Z,24.90
2023-03-12T22:24:26.355Z,22.90
2023-03-12T22:27:59.794Z,22.80
2023-03-12T22:31:34.803Z,25.00
2023-03-12T22:35:26.226Z,24.70
2023-03-12T22:37:58.579Z,26.70
2023-03-12T22:40:30.733Z,24.50
2023-03-12T22:43:03.295Z,23.00
2023-03-12T22:45:36.168Z,28.10
2023-03-12T22:48:10.828Z,21.90
2023-03-12T22:50:42.973Z,27.90
2023-03-12T22:54:09.257Z,26.20
2023-03-12T22:57:34.511Z,28.80
2023-03-12T23:01:10.537Z,31.50
2023-03-12T23:04:43.418Z,29.90
2023-03-12T23:08:17.400Z,31.10
2023-03-12T23:11:50.725Z,29.40
2023-03-12T23:15:17.258Z,31.70
2023-03-12T23:18:50.609Z,28.60
2023-03-12T23:22:27.749Z,29.40
2023-03-12T23:25:00.250Z,27.30
2023-03-12T23:27:32.467Z,22.00
2023-03-12T23:30:04.802Z,24.90
2023-03-12T23:32:38.022Z,28.30
2023-03-12T23:35:11.086Z,25.90
2023-03-12T23:37:43.845Z,25.30
2023-03-12T23:41:19.195Z,27.50
2023-03-12T23:44:41.377Z,25.20
2023-03-12T23:48:17.308Z,23.40
2023-03-12T23:51:50.017Z,18.60
2023-03-12T23:54:22.976Z,14.20
2023-03-12T23:56:56.460Z,16.20
2023-03-12T23:59:28.773Z,12.10
